Flight Track Log - Related Links

Times and Time Zones

All times are in EDT time to prevent confusion due to time zone crossing. See the KAP165 flight status page for this flight to view local times or setup timezone preferences in your user account.

Time Position Orientation Groundspeed Altitude Reporting Facility
EDT Latitude Longitude Course Direction KTS MPH feet Rate Location/Type
Sat 04:59:00 PM 44.4692 -75.2761 111° Southeast  Level Estimated
Sat 05:00:00 PM 44.4928 -75.2137 62° Northeast  Level FlightAware Approximate
Sat 05:05:47 PM 44.6308 -75.2725 106° East 160 184 3,400  Level Boston Center
Sat 05:06:47 PM 44.5986 -75.2217 132° Southeast 170 196 4,200 850 Climbing Boston Center
Sat 05:07:47 PM 44.5617 -75.1964 154° Southeast 154 177 5,100 900 Climbing Boston Center
Sat 05:08:47 PM 44.5250 -75.1656 149° Southeast 154 177 6,000 850 Climbing Boston Center
Sat 05:09:47 PM 44.4881 -75.1378 152° Southeast 154 177 6,800 550 Climbing Boston Center
Sat 05:10:00 PM 44.0599 -74.8542 106° East  Level Estimated
Sat 05:10:47 PM 44.4453 -75.1008 148° Southeast 159 183 7,100  Level Boston Center
Sat 05:11:47 PM 44.4022 -75.0697 153° Southeast 170 196 7,100  Level Boston Center
Sat 05:12:47 PM 44.3569 -75.0358 152° Southeast 175 201 7,100  Level Boston Center
Sat 05:13:47 PM 44.3161 -74.9992 147° Southeast 175 201 7,100 -50 Level Boston Center
Sat 05:14:47 PM 44.2731 -74.9683 153° Southeast 180 207 7,000  Descending Boston Center
Sat 05:15:47 PM 44.2303 -74.9319 149° Southeast 180 207 7,100 50 Climbing Boston Center
Sat 05:16:47 PM 44.1872 -74.8983 151° Southeast 180 207 7,100  Level Boston Center
Sat 05:17:47 PM 44.1419 -74.8617 150° Southeast 180 207 7,100  Level Boston Center
Sat 05:18:59 PM 44.1011 -74.8311 152° Southeast 180 207 7,100 -45 Level Boston Center
Sat 05:19:59 PM 44.0497 -74.7914 151° Southeast 180 207 7,000 -50 Descending Boston Center
Sat 05:20:59 PM 44.0067 -74.7581 151° Southeast 180 207 7,000 50 Level Boston Center
Sat 05:21:59 PM 43.9636 -74.7217 149° Southeast 180 207 7,100 50 Climbing Boston Center
Sat 05:22:59 PM 43.9206 -74.6911 153° Southeast 180 207 7,100  Level Boston Center
Sat 05:23:59 PM 43.8775 -74.6550 149° Southeast 180 207 7,100  Level Boston Center
Sat 05:24:59 PM 43.8342 -74.6217 151° Southeast 180 207 7,100  Level Boston Center
Sat 05:25:59 PM 43.7911 -74.5886 151° Southeast 180 207 7,100  Level Boston Center
Sat 05:26:59 PM 43.7481 -74.5553 151° Southeast 180 207 7,100  Level Boston Center
Sat 05:27:59 PM 43.7047 -74.5222 151° Southeast 180 207 7,100  Level Boston Center
Sat 05:28:59 PM 43.6617 -74.4892 151° Southeast 180 207 7,100  Level Boston Center
Sat 05:29:59 PM 43.6164 -74.4561 152° Southeast 180 207 7,100  Level Boston Center
Sat 05:30:59 PM 43.5733 -74.4203 149° Southeast 180 207 7,100 -49 Level Boston Center
Sat 05:32:02 PM 43.5239 -74.3844 152° Southeast 184 212 7,000 -69 Descending Boston Center
Sat 05:32:26 PM 43.5033 -74.3694 152° Southeast 182 209 7,000 105 Level Boston Center
Sat 05:32:59 PM 43.4847 -74.3544 150° Southeast 180 207 7,100  Climbing Boston Center
Sat 05:33:27 PM 43.4581 -74.3364 154° Southeast 180 207 7,000  Descending Boston Center
Sat 05:33:59 PM 43.4417 -74.3217 147° Southeast 180 207 7,100  Climbing Boston Center
Sat 05:34:21 PM 43.4169 -74.3039 152° Southeast 181 208 7,000  Descending Boston Center
Sat 05:34:59 PM 43.3983 -74.2861 145° Southeast 180 207 7,100  Climbing Boston Center
Sat 05:35:22 PM 43.3736 -74.2711 156° South 182 209 7,000 -100 Descending Boston Center
Sat 05:35:59 PM 43.3469 -74.2503 150° Southeast 180 207 7,000  Level Boston Center
Sat 05:36:23 PM 43.3281 -74.2411 161° South 179 206 7,000  Level Boston Center
Sat 05:36:59 PM 43.3036 -74.2175 145° Southeast 180 207 7,000  Level Boston Center
Sat 05:37:24 PM 43.2892 -74.2056 149° Southeast 180 207 7,000 -200 Level Boston Center
Sat 05:37:59 PM 43.2603 -74.1822 150° Southeast 180 207 6,800 -400 Descending Boston Center
Sat 05:38:24 PM 43.2439 -74.1731 158° South 184 212 6,600 -500 Descending Boston Center
Sat 05:38:59 PM 43.2150 -74.1494 149° Southeast 185 213 6,300 -492 Descending Boston Center
Sat 05:39:25 PM 43.1944 -74.1347 152° Southeast 199 229 6,100 -600 Descending Boston Center
Sat 05:39:59 PM 43.1656 -74.1139 152° Southeast 191 220 5,700 -590 Descending Boston Center
Sat 05:40:26 PM 43.1428 -74.0961 150° Southeast 198 228 5,500 -500 Descending Boston Center
Sat 05:40:59 PM 43.1222 -74.0786 148° Southeast 199 229 5,200 -492 Descending Boston Center
Sat 05:41:27 PM 43.0933 -74.0664 163° South 198 228 5,000 -200 Descending Boston Center
Sat 05:41:59 PM 43.0664 -74.0486 154° Southeast 194 223 5,000  Level Boston Center
Sat 05:42:27 PM 43.0436 -74.0394 164° South 187 215 5,000  Level Boston Center
Sat 05:42:59 PM 43.0228 -74.0275 157° South 188 216 5,000  Level Boston Center
Sat 05:43:28 PM 42.9981 -74.0128 156° South 180 207 5,000  Level Boston Center
Sat 05:43:59 PM 42.9733 -73.9981 156° South 188 216 5,000  Level Boston Center
Sat 05:44:29 PM 42.9483 -73.9889 165° South 180 207 5,000 -200 Level Boston Center
Sat 05:44:59 PM 42.9297 -73.9769 155° Southeast 188 216 4,800 -295 Descending Boston Center
Sat 05:45:30 PM 42.9028 -73.9650 162° South 186 214 4,700 -400 Descending Boston Center
Sat 05:45:59 PM 42.8739 -73.9500 159° South 188 216 4,400 -556 Descending Boston Center
Sat 05:46:24 PM 42.8531 -73.9497 179° South 196 226 4,200 -500 Descending Boston Center
Sat 05:46:59 PM 42.8239 -73.9403 167° South 188 216 3,900 -492 Descending Boston Center
Sat 05:47:25 PM 42.8033 -73.9342 168° South 190 219 3,700 -483 Descending Boston Center
Sat 05:48:26 PM 42.7472 -73.9217 171° South 190 219 3,200 -347 Descending Boston Center
Sat 05:49:26 PM 42.6972 -73.9119 172° South 181 208 3,000 -99 Descending Boston Center
Sat 05:50:27 PM 42.6514 -73.9025 171° South 157 181 3,000 -148 Level Boston Center
Sat 05:51:28 PM 42.6458 -73.8486 98° East 168 193 2,700 -470 Descending Boston Center
Sat 05:52:22 PM 42.6714 -73.8153 44° Northeast 139 160 2,100 -939 Descending Boston Center
Sat 05:53:23 PM 42.7069 -73.8047 12° North 123 142 900 -1,180 Descending Boston Center

Login

Don't have an account? Register now (free) for customized features, flight alerts, and more!